Portada
METAR-TAF:

METAR-TAF

Aeroports :

Kitakyushu, Japó

latitud: 33-50N, longitud: 130-57E, altitud: 3 m

Observació

L'informe es va fer fa 1 hora i 11 minuts, a les 23:00 UTC
Vent 12 kt del Sud/Sud-Oest
Temperatura 29°C
Humitat 70%
Pressió 1010 hPa
Visibilitat 10 km o més
Escasses núvols a una alçada de 2500 ft
Núvols disperses a una alçada de 6000 ft
Cel ennuvolat a una alçada de 10000 ft

METAR: RJFR 062300Z 21012KT 9999 FEW025 SCT060 BKN100 29/23 Q1010

Hora: 09:11 (00:11 UTC)

Pronòstic

L'informe es va fer fa 1 hora i 3 minuts, a les 23:08 UTC
Pronòstic vàlid del 07 a les 00 UTC al 08 a les 06 UTC
Vent 6 kt del Sud-Est
Visibilitat: 9000 m
Escasses núvols a una alçada de 2000 ft
Núvols disperses a una alçada de 3000 ft
Cel ennuvolat a una alçada de 4000 ft
xàfecs de pluja

TAF: RJFR 062308Z 0700/0806 14006KT 9000 -SHRA FEW020 SCT030 BKN040

Observacions i pronòstics meteorològics de més de 4000 aeroports (METAR i TAF).

Les estacions disponibles són els punts grocs i vermells al mapa.

Posi el ratolí al punt desitjat per veure el nom de l'estació.

Feu clic per veure les observacions i els pronòstics meteorològics.

Per canviar el mapa: feu clic els botons verds amb una creu de color negre per apropar; al botó verd amb un guió per allunyar la imatge; o en les fletxes verdes per a mapes adjacents.


METAR-TAF: